createdAt,value
2018-01-31T01:53:47.613Z,31.37
2018-01-31T01:56:15.092Z,31.47
2018-01-31T01:58:42.637Z,31.23
2018-01-31T02:01:10.157Z,31.50
2018-01-31T02:03:38.409Z,31.03
2018-01-31T02:06:05.896Z,32.07
2018-01-31T02:08:34.177Z,31.70
2018-01-31T02:11:02.464Z,29.83
2018-01-31T02:13:29.935Z,30.33
2018-01-31T02:15:57.451Z,32.43
2018-01-31T02:18:25.699Z,32.43
2018-01-31T02:20:53.187Z,32.83
2018-01-31T02:23:20.725Z,31.20
2018-01-31T02:25:48.204Z,30.63
2018-01-31T02:28:15.691Z,29.23
2018-01-31T02:30:43.223Z,29.93
2018-01-31T02:33:10.704Z,30.20
2018-01-31T02:35:38.195Z,29.10
2018-01-31T02:38:05.700Z,29.10
2018-01-31T02:40:33.217Z,33.53
2018-01-31T02:43:00.716Z,32.00
2018-01-31T02:45:28.193Z,36.27
2018-01-31T02:47:56.453Z,38.27
2018-01-31T02:50:23.943Z,37.30
2018-01-31T02:52:51.428Z,37.87
2018-01-31T02:55:18.928Z,37.60
2018-01-31T02:57:46.401Z,42.97
2018-01-31T03:00:14.644Z,43.57
2018-01-31T03:02:42.148Z,40.73
2018-01-31T03:05:10.396Z,42.13
2018-01-31T03:07:37.870Z,41.10
2018-01-31T03:10:06.132Z,40.33
2018-01-31T03:12:33.616Z,37.47
2018-01-31T03:15:01.879Z,37.47
2018-01-31T03:17:30.149Z,35.40
2018-01-31T03:19:57.656Z,36.20
2018-01-31T03:22:25.149Z,35.80
2018-01-31T03:24:52.647Z,36.00
2018-01-31T03:27:20.897Z,37.63
2018-01-31T03:29:48.403Z,39.80
2018-01-31T03:32:15.871Z,39.10
2018-01-31T03:34:43.387Z,38.10
2018-01-31T03:37:10.902Z,36.60
2018-01-31T03:39:38.387Z,40.10
2018-01-31T03:42:05.888Z,43.47
2018-01-31T03:44:34.124Z,39.43
2018-01-31T03:47:01.612Z,42.40
2018-01-31T03:49:29.921Z,39.10
2018-01-31T03:51:57.376Z,39.20
2018-01-31T03:54:24.876Z,38.90
2018-01-31T03:56:52.402Z,36.40
2018-01-31T03:59:19.888Z,35.90
2018-01-31T04:01:47.380Z,33.93
2018-01-31T04:04:15.664Z,34.20
2018-01-31T04:06:43.940Z,32.57
2018-01-31T04:09:12.204Z,31.60
2018-01-31T04:11:40.478Z,33.60
2018-01-31T04:14:07.961Z,31.70
2018-01-31T04:16:36.206Z,34.40
2018-01-31T04:19:03.767Z,35.90
2018-01-31T04:21:31.246Z,36.20
2018-01-31T04:23:59.743Z,39.27
2018-01-31T04:26:27.264Z,34.83
2018-01-31T04:28:54.759Z,36.43
2018-01-31T04:31:23.000Z,38.67
2018-01-31T04:33:50.540Z,34.50
2018-01-31T04:36:18.028Z,38.53
2018-01-31T04:38:45.524Z,37.17
2018-01-31T04:41:13.026Z,38.60
2018-01-31T04:43:40.507Z,37.40
2018-01-31T04:46:07.996Z,37.20
2018-01-31T04:48:35.535Z,34.33
2018-01-31T04:51:03.784Z,36.20
2018-01-31T04:53:31.271Z,38.30
2018-01-31T04:55:59.561Z,36.60
2018-01-31T04:58:27.804Z,37.37
2018-01-31T05:00:55.276Z,35.50
2018-01-31T05:03:22.779Z,36.33
2018-01-31T05:05:50.259Z,36.50
2018-01-31T05:08:17.738Z,37.73
2018-01-31T05:10:45.237Z,38.90
2018-01-31T05:13:13.528Z,38.00
2018-01-31T05:15:41.032Z,34.90
2018-01-31T05:18:08.518Z,38.73
2018-01-31T05:20:36.791Z,35.90
2018-01-31T05:23:05.060Z,36.13
2018-01-31T05:25:33.324Z,38.77
2018-01-31T05:28:00.806Z,36.37
2018-01-31T05:30:29.069Z,35.53
2018-01-31T05:32:56.552Z,33.80
2018-01-31T05:35:24.816Z,33.77
2018-01-31T05:37:53.060Z,33.70
2018-01-31T05:40:20.546Z,35.00
2018-01-31T05:42:48.822Z,32.17
2018-01-31T05:45:16.301Z,33.57
2018-01-31T05:47:44.540Z,31.60
2018-01-31T05:50:12.801Z,31.47
2018-01-31T05:52:40.290Z,30.50
2018-01-31T05:55:07.780Z,34.10
2018-01-31T05:57:35.275Z,34.17
2018-01-31T06:00:02.816Z,32.97
2018-01-31T06:02:30.309Z,32.37
2018-01-31T06:04:57.814Z,31.17
2018-01-31T06:07:26.059Z,29.33
2018-01-31T06:09:53.549Z,31.73
2018-01-31T06:12:21.898Z,28.73
2018-01-31T06:14:49.386Z,29.80
2018-01-31T06:17:17.635Z,30.27
2018-01-31T06:19:45.937Z,31.83
2018-01-31T06:22:14.172Z,32.33
2018-01-31T06:24:41.644Z,32.40
2018-01-31T06:27:09.155Z,33.57
2018-01-31T06:29:36.628Z,32.00
2018-01-31T06:32:04.117Z,33.33
2018-01-31T06:34:31.607Z,31.23
2018-01-31T06:36:59.853Z,31.70
2018-01-31T06:39:27.345Z,31.00
2018-01-31T06:41:55.586Z,31.50
2018-01-31T06:44:23.080Z,30.67
2018-01-31T06:46:52.332Z,31.87
2018-01-31T06:49:19.804Z,37.40
2018-01-31T06:51:47.424Z,35.10
2018-01-31T06:54:14.901Z,31.43
2018-01-31T06:56:42.377Z,34.90
2018-01-31T06:59:09.884Z,34.33
2018-01-31T07:01:38.123Z,36.10
2018-01-31T07:04:05.644Z,34.90
2018-01-31T07:06:33.196Z,34.53
2018-01-31T07:09:00.676Z,31.40
2018-01-31T07:11:28.154Z,33.20
2018-01-31T07:13:55.683Z,33.27
2018-01-31T07:16:23.171Z,33.07
2018-01-31T07:18:50.647Z,34.40
2018-01-31T07:21:18.140Z,35.83
2018-01-31T07:23:45.700Z,32.97
2018-01-31T07:26:13.236Z,34.97
2018-01-31T07:28:41.518Z,35.67
2018-01-31T07:31:09.787Z,33.07
2018-01-31T07:33:37.291Z,34.00
2018-01-31T07:36:04.809Z,35.93
2018-01-31T07:38:33.084Z,36.30
2018-01-31T07:41:01.384Z,35.77
2018-01-31T07:43:29.664Z,39.00
2018-01-31T07:45:57.140Z,39.27
2018-01-31T07:48:24.611Z,38.90
2018-01-31T07:50:52.096Z,41.57
2018-01-31T07:53:19.588Z,39.33
2018-01-31T07:55:47.827Z,37.03
2018-01-31T07:58:15.392Z,31.93
2018-01-31T08:00:43.712Z,33.33
2018-01-31T08:03:11.325Z,33.53
2018-01-31T08:05:38.824Z,32.47
2018-01-31T08:08:07.100Z,33.53
2018-01-31T08:10:35.349Z,35.13
2018-01-31T08:13:02.855Z,34.00
2018-01-31T08:15:30.392Z,34.10
2018-01-31T08:17:57.851Z,37.20
2018-01-31T08:20:26.098Z,33.07
2018-01-31T08:22:53.626Z,36.03
2018-01-31T08:25:21.101Z,35.57
2018-01-31T08:27:49.346Z,34.13
2018-01-31T08:30:16.863Z,36.70
2018-01-31T08:32:45.117Z,33.23
2018-01-31T08:35:12.620Z,34.37
2018-01-31T08:37:40.886Z,36.57
2018-01-31T08:40:08.386Z,39.43
2018-01-31T08:42:35.862Z,38.13
2018-01-31T08:45:03.367Z,38.87
2018-01-31T08:47:31.617Z,41.17
2018-01-31T08:49:59.137Z,43.37
2018-01-31T08:52:26.627Z,41.67
2018-01-31T08:54:54.122Z,42.00
2018-01-31T08:57:22.379Z,43.47
2018-01-31T08:59:49.908Z,44.00
2018-01-31T09:02:17.411Z,47.57
2018-01-31T09:04:44.977Z,51.10
2018-01-31T09:07:13.292Z,50.57
2018-01-31T09:09:40.792Z,48.20
2018-01-31T09:12:09.178Z,48.70
2018-01-31T09:14:36.702Z,47.40
2018-01-31T09:17:04.200Z,48.50
2018-01-31T09:19:31.750Z,47.00
2018-01-31T09:21:59.269Z,46.33
2018-01-31T09:24:26.796Z,49.53
2018-01-31T09:26:55.105Z,50.77
2018-01-31T09:29:22.603Z,48.77
2018-01-31T09:31:50.107Z,47.97
2018-01-31T09:34:18.405Z,46.27
2018-01-31T09:36:45.914Z,45.70
2018-01-31T09:39:13.412Z,48.97
2018-01-31T09:41:40.980Z,49.97
2018-01-31T09:44:08.511Z,51.47
2018-01-31T09:46:36.815Z,48.13
2018-01-31T09:49:04.329Z,50.50
2018-01-31T09:51:32.632Z,51.30
2018-01-31T09:54:00.977Z,51.20
2018-01-31T09:56:28.505Z,52.13
2018-01-31T09:58:56.011Z,49.73
2018-01-31T10:01:23.543Z,54.30
2018-01-31T10:03:51.049Z,50.57
2018-01-31T10:06:19.323Z,49.10
2018-01-31T10:08:47.615Z,53.03
2018-01-31T10:11:15.904Z,53.00
2018-01-31T10:13:43.412Z,51.97
2018-01-31T10:16:11.043Z,52.00
2018-01-31T10:18:38.546Z,50.90
2018-01-31T10:21:06.911Z,53.70
2018-01-31T10:23:34.459Z,52.00
2018-01-31T10:26:01.988Z,56.13
2018-01-31T10:28:29.518Z,51.30
2018-01-31T10:30:57.800Z,52.57
2018-01-31T10:33:26.080Z,54.00
2018-01-31T10:35:54.410Z,54.80
2018-01-31T10:38:21.911Z,50.87
2018-01-31T10:40:50.202Z,54.37
2018-01-31T10:43:18.467Z,55.33
2018-01-31T10:45:46.730Z,56.87
2018-01-31T10:48:14.289Z,52.17
2018-01-31T10:50:41.788Z,60.97
2018-01-31T10:53:09.293Z,54.80
2018-01-31T10:58:05.165Z,57.10
2018-01-31T11:00:33.453Z,56.70
2018-01-31T11:03:01.017Z,72.00
2018-01-31T11:05:28.564Z,64.83
2018-01-31T11:07:56.867Z,62.40
2018-01-31T11:10:24.399Z,60.93
2018-01-31T11:12:52.672Z,59.30
2018-01-31T11:15:20.940Z,61.83
2018-01-31T11:17:48.508Z,61.20
2018-01-31T11:20:16.800Z,64.10
2018-01-31T11:22:45.103Z,67.63
2018-01-31T11:25:12.614Z,68.90
2018-01-31T11:27:40.099Z,63.30
2018-01-31T11:30:08.388Z,67.60
2018-01-31T11:32:35.924Z,68.70
2018-01-31T11:35:04.192Z,68.70
2018-01-31T11:37:31.736Z,71.40
2018-01-31T11:40:00.062Z,72.70
2018-01-31T11:42:27.571Z,71.47
2018-01-31T11:44:55.075Z,70.60
2018-01-31T11:47:23.314Z,72.30
2018-01-31T11:49:50.800Z,72.10
2018-01-31T11:52:19.064Z,72.57
2018-01-31T11:54:46.546Z,64.70
2018-01-31T11:57:14.036Z,74.60
2018-01-31T11:59:41.548Z,70.20
2018-01-31T12:02:09.808Z,67.87
2018-01-31T12:04:37.301Z,74.40
2018-01-31T12:07:04.805Z,78.63
2018-01-31T12:09:36.269Z,74.60
2018-01-31T12:12:03.766Z,77.43
2018-01-31T12:14:43.756Z,75.13
2018-01-31T12:17:11.227Z,78.10
2018-01-31T12:20:08.212Z,75.23
2018-01-31T12:22:48.292Z,69.93
2018-01-31T12:25:27.588Z,74.80
2018-01-31T12:28:06.755Z,68.60
2018-01-31T12:30:41.768Z,61.83
2018-01-31T12:33:21.828Z,67.67
2018-01-31T12:36:01.978Z,65.10
2018-01-31T12:38:41.905Z,58.67
2018-01-31T12:41:08.926Z,71.63
2018-01-31T12:43:35.973Z,59.60
2018-01-31T12:46:15.236Z,56.00
2018-01-31T12:48:54.533Z,49.47
2018-01-31T12:51:29.568Z,53.90
2018-01-31T12:54:18.587Z,49.73
2018-01-31T12:56:57.975Z,50.63
2018-01-31T12:59:37.182Z,51.33
2018-01-31T13:02:17.405Z,50.43
2018-01-31T13:04:56.689Z,49.30
2018-01-31T13:07:36.629Z,69.40
2018-01-31T13:10:16.750Z,49.00
2018-01-31T13:12:56.252Z,53.17
2018-01-31T13:15:35.428Z,48.50
2018-01-31T13:18:28.525Z,48.27
2018-01-31T13:21:07.772Z,47.90
2018-01-31T13:23:35.268Z,48.43
2018-01-31T13:26:14.626Z,51.03
2018-01-31T13:28:50.707Z,45.80
2018-01-31T13:31:30.728Z,52.13
2018-01-31T13:34:09.966Z,48.20
2018-01-31T13:36:49.198Z,48.83
2018-01-31T13:39:28.422Z,46.30
2018-01-31T13:42:07.962Z,51.27
2018-01-31T13:44:47.288Z,52.60
2018-01-31T13:47:26.531Z,50.00
2018-01-31T13:50:05.872Z,47.70
2018-01-31T13:52:45.026Z,47.70
2018-01-31T13:55:25.232Z,53.90
2018-01-31T13:58:04.528Z,52.33
2018-01-31T14:03:48.269Z,51.50
2018-01-31T14:06:27.604Z,51.40
2018-01-31T14:09:16.812Z,51.17
2018-01-31T14:11:56.026Z,52.77
2018-01-31T14:14:36.140Z,53.60
2018-01-31T14:17:15.486Z,55.77
2018-01-31T14:19:54.569Z,51.93
2018-01-31T14:22:33.885Z,57.10
2018-01-31T14:25:04.544Z,52.20
2018-01-31T14:27:43.848Z,51.10
2018-01-31T14:30:23.993Z,52.67
2018-01-31T14:33:03.402Z,52.40
2018-01-31T14:35:42.626Z,51.00
2018-01-31T14:38:09.691Z,53.87
2018-01-31T14:40:36.677Z,55.23
2018-01-31T14:43:03.668Z,55.17
2018-01-31T14:45:30.682Z,55.87
2018-01-31T14:47:58.436Z,54.40
2018-01-31T14:50:26.200Z,57.60
2018-01-31T14:52:53.199Z,56.67
2018-01-31T14:55:20.181Z,56.17
2018-01-31T14:57:47.185Z,58.30
2018-01-31T15:00:14.177Z,56.63
2018-01-31T15:02:41.181Z,57.57
2018-01-31T15:05:08.187Z,59.60
2018-01-31T15:07:36.121Z,58.70
2018-01-31T15:10:03.126Z,60.30
2018-01-31T15:12:30.117Z,60.67
2018-01-31T15:14:57.097Z,60.53
2018-01-31T15:17:24.874Z,65.27
2018-01-31T15:19:52.652Z,59.83
2018-01-31T15:22:19.666Z,63.17
2018-01-31T15:24:46.683Z,65.30
2018-01-31T15:27:13.684Z,61.97
2018-01-31T15:29:41.432Z,63.20
2018-01-31T15:32:08.435Z,63.83
2018-01-31T15:34:35.430Z,67.90
2018-01-31T15:37:02.426Z,68.03
2018-01-31T15:39:29.439Z,65.80
2018-01-31T15:41:57.238Z,64.77
2018-01-31T15:44:24.281Z,62.83
2018-01-31T15:46:51.269Z,60.20
2018-01-31T15:49:18.260Z,66.30
2018-01-31T15:51:45.262Z,64.97
2018-01-31T15:54:12.248Z,64.97
2018-01-31T15:56:40.006Z,65.77
2018-01-31T15:59:07.819Z,72.07
2018-01-31T16:01:34.822Z,68.20
2018-01-31T16:04:02.600Z,68.83
2018-01-31T16:06:29.695Z,64.60
2018-01-31T16:08:56.711Z,68.10
2018-01-31T16:11:23.751Z,62.37
2018-01-31T16:13:50.757Z,62.13
2018-01-31T16:16:18.234Z,58.97
2018-01-31T16:18:58.177Z,63.23
2018-01-31T16:21:25.674Z,58.70
2018-01-31T16:23:53.175Z,60.07
2018-01-31T16:26:21.292Z,62.40
2018-01-31T16:29:00.638Z,69.60
2018-01-31T16:31:40.044Z,64.17
2018-01-31T16:34:07.639Z,65.50
2018-01-31T16:36:35.128Z,66.13
2018-01-31T16:39:02.658Z,67.10
2018-01-31T16:41:30.138Z,63.17
2018-01-31T16:43:57.634Z,61.30
2018-01-31T16:46:25.183Z,68.07
2018-01-31T16:48:52.666Z,65.57
2018-01-31T16:51:20.930Z,71.00
2018-01-31T16:53:48.445Z,69.70
2018-01-31T16:56:15.956Z,69.43
2018-01-31T16:58:43.440Z,78.30
2018-01-31T17:01:11.126Z,80.97
2018-01-31T17:03:39.088Z,69.30
2018-01-31T17:06:07.692Z,70.50
2018-01-31T17:08:35.571Z,72.97
2018-01-31T17:11:04.773Z,71.17
2018-01-31T17:13:33.104Z,67.47
2018-01-31T17:16:01.080Z,71.60
2018-01-31T17:18:29.896Z,69.43
2018-01-31T17:20:58.260Z,70.23
2018-01-31T17:23:26.516Z,69.20
2018-01-31T17:25:59.673Z,70.57
2018-01-31T17:28:27.634Z,72.50
2018-01-31T17:30:55.679Z,76.30
2018-01-31T17:33:24.730Z,73.50
2018-01-31T17:35:53.487Z,71.90
2018-01-31T17:38:23.263Z,75.70
2018-01-31T17:40:51.526Z,80.57
2018-01-31T17:43:19.312Z,80.23
2018-01-31T17:45:47.478Z,88.30
2018-01-31T17:48:16.414Z,81.40
2018-01-31T17:50:44.244Z,74.63
2018-01-31T17:53:12.350Z,79.63
2018-01-31T17:55:40.281Z,81.37
2018-01-31T17:58:08.474Z,71.90
2018-01-31T18:00:36.331Z,69.57
2018-01-31T18:03:05.014Z,71.53
2018-01-31T18:05:33.285Z,77.43
2018-01-31T18:08:01.124Z,74.07
2018-01-31T18:10:29.032Z,78.97
2018-01-31T18:12:56.938Z,77.67
2018-01-31T18:15:24.994Z,74.53
2018-01-31T18:17:52.910Z,76.20
2018-01-31T18:20:20.845Z,76.10
2018-01-31T18:22:48.731Z,73.17
2018-01-31T18:25:17.302Z,72.67
2018-01-31T18:27:45.813Z,72.30
2018-01-31T18:30:13.866Z,75.57
2018-01-31T18:32:41.661Z,79.60
2018-01-31T18:35:09.576Z,73.30
2018-01-31T18:37:37.606Z,73.10
2018-01-31T18:40:05.434Z,75.40
2018-01-31T18:42:33.492Z,75.70
2018-01-31T18:45:01.183Z,75.17
2018-01-31T18:47:29.081Z,78.43
2018-01-31T18:49:56.896Z,76.83
2018-01-31T18:52:25.313Z,74.30
2018-01-31T18:54:53.064Z,75.27
2018-01-31T18:57:21.858Z,79.83
2018-01-31T18:59:50.695Z,75.90
2018-01-31T19:02:19.313Z,75.87
2018-01-31T19:04:48.320Z,75.87
2018-01-31T19:07:17.712Z,70.60
2018-01-31T19:09:46.494Z,69.13
2018-01-31T19:12:15.211Z,74.00
2018-01-31T19:14:45.140Z,71.87
2018-01-31T19:17:13.405Z,74.47
2018-01-31T19:19:41.125Z,72.83
2018-01-31T19:22:08.962Z,75.67
2018-01-31T19:24:36.684Z,76.17
2018-01-31T19:27:04.632Z,75.57
2018-01-31T19:29:32.499Z,78.67
2018-01-31T19:32:01.289Z,76.43
2018-01-31T19:34:29.173Z,77.07
2018-01-31T19:36:57.914Z,69.23
2018-01-31T19:39:26.825Z,68.30
2018-01-31T19:41:54.829Z,69.80
2018-01-31T19:44:22.550Z,71.00
2018-01-31T19:46:52.258Z,75.43
2018-01-31T19:49:20.359Z,75.63
2018-01-31T19:51:48.424Z,84.67
2018-01-31T19:54:16.628Z,80.67
2018-01-31T19:56:44.520Z,82.97
2018-01-31T19:59:13.206Z,81.93
2018-01-31T20:01:41.452Z,77.23
2018-01-31T20:04:10.078Z,79.67
2018-01-31T20:06:38.767Z,78.00
2018-01-31T20:09:06.659Z,74.20
2018-01-31T20:11:34.381Z,71.20
2018-01-31T20:14:02.412Z,71.33
2018-01-31T20:16:30.221Z,76.90
2018-01-31T20:19:01.388Z,70.60
2018-01-31T20:21:29.105Z,75.17
2018-01-31T20:23:56.867Z,70.60
2018-01-31T20:26:24.732Z,75.10
2018-01-31T20:28:53.213Z,74.10
2018-01-31T20:31:21.224Z,73.87
2018-01-31T20:33:49.701Z,72.30
2018-01-31T20:36:18.173Z,76.90
2018-01-31T20:38:46.589Z,70.67
2018-01-31T20:41:14.441Z,72.80
2018-01-31T20:43:43.062Z,75.37
2018-01-31T20:46:10.753Z,76.20
2018-01-31T20:48:39.517Z,78.90
2018-01-31T20:51:07.300Z,72.17
2018-01-31T20:53:35.808Z,75.07
2018-01-31T20:56:03.582Z,74.63
2018-01-31T20:58:31.520Z,71.90
2018-01-31T21:00:59.596Z,71.90
2018-01-31T21:03:28.187Z,70.00
2018-01-31T21:05:55.939Z,69.07
2018-01-31T21:08:24.024Z,71.03
2018-01-31T21:10:52.760Z,70.37
2018-01-31T21:13:20.607Z,70.33
2018-01-31T21:15:48.310Z,76.67
2018-01-31T21:18:15.864Z,74.50
2018-01-31T21:20:51.279Z,77.33
2018-01-31T21:23:28.519Z,71.47
2018-01-31T21:25:57.656Z,74.97
2018-01-31T21:28:26.248Z,83.73
2018-01-31T21:30:54.422Z,78.23
2018-01-31T21:33:23.332Z,76.90
2018-01-31T21:35:57.216Z,81.47
2018-01-31T21:38:25.399Z,75.80
2018-01-31T21:40:53.742Z,77.27
2018-01-31T21:43:24.293Z,76.83
2018-01-31T21:45:53.449Z,76.53
2018-01-31T21:48:31.248Z,75.17
2018-01-31T21:51:01.820Z,74.60
2018-01-31T21:53:31.378Z,86.63
2018-01-31T21:56:02.621Z,85.70
2018-01-31T21:58:33.380Z,77.57
2018-01-31T22:03:44.914Z,76.50
2018-01-31T22:06:12.762Z,80.73
2018-01-31T22:08:55.183Z,79.40
2018-01-31T22:11:25.999Z,85.47
2018-01-31T22:13:54.649Z,76.47
2018-01-31T22:16:23.609Z,78.60
2018-01-31T22:18:52.321Z,73.70
2018-01-31T22:21:20.092Z,84.73
2018-01-31T22:23:47.616Z,80.83
2018-01-31T22:26:16.268Z,78.90
2018-01-31T22:28:44.008Z,75.13
2018-01-31T22:31:11.713Z,82.77
2018-01-31T22:33:39.496Z,72.80
2018-01-31T22:36:13.850Z,76.33
2018-01-31T22:38:42.046Z,77.20
2018-01-31T22:41:09.600Z,76.37
2018-01-31T22:43:37.251Z,75.47
2018-01-31T22:46:05.007Z,73.63
2018-01-31T22:48:33.550Z,76.60
2018-01-31T22:51:01.038Z,75.77
2018-01-31T22:53:36.920Z,74.63
2018-01-31T22:56:05.938Z,76.00
2018-01-31T22:58:33.860Z,69.63
2018-01-31T23:01:02.379Z,75.63
2018-01-31T23:03:30.286Z,72.77
2018-01-31T23:05:58.210Z,74.17
2018-01-31T23:08:25.856Z,71.60
2018-01-31T23:10:54.341Z,74.33
2018-01-31T23:13:22.693Z,75.23
2018-01-31T23:15:50.469Z,79.00
2018-01-31T23:18:18.990Z,79.07
2018-01-31T23:20:46.878Z,75.13
2018-01-31T23:23:14.440Z,75.40
2018-01-31T23:25:42.845Z,71.60
2018-01-31T23:28:10.346Z,73.93
2018-01-31T23:30:38.117Z,71.77
2018-01-31T23:33:05.776Z,74.57
2018-01-31T23:35:33.517Z,74.60
2018-01-31T23:38:02.312Z,76.67
2018-01-31T23:40:31.093Z,77.97
2018-01-31T23:42:59.457Z,78.30
2018-01-31T23:45:26.956Z,72.50
2018-01-31T23:47:54.436Z,74.77
2018-01-31T23:50:21.923Z,73.60
2018-01-31T23:52:49.402Z,74.60
2018-01-31T23:55:16.905Z,76.50
2018-01-31T23:57:44.408Z,74.30
